Terminal Aerodrome Forecast
Issued by NWS

Home | Current Version | Previous Version | Text Only | Print | Product List | Glossary On
Versions: 1 2 3 4 5 6 7 8 9 10 11 12 13 14 15 16 17 18 19 20 21 22 23
000
FTUS46 KOTX 042320
TAFMWH
TAF
KMWH 042320Z 0500/0524 02008KT P6SM SCT100 BKN150 BKN200
     FM050200 31008KT P6SM SCT070 BKN120 OVC150
     FM050700 32011KT P6SM VCSH SCT050 BKN070 OVC120
     FM050900 32008KT P6SM -SHRA SCT040 BKN070 OVC100
     FM051700 33010KT P6SM SCT050 BKN070 BKN100
     FM052200 28011KT P6SM SCT070=

USA.gov is the U.S. government's official web portal to all federal, state and local government web resources and services.